sensor_id;sensor_type;location;lat;lon;timestamp;temperature;humidity
4312;DHT22;2169;49.086;9.284;2023-07-08T00:02:08;25.00;29.90
4312;DHT22;2169;49.086;9.284;2023-07-08T00:04:38;24.90;30.00
4312;DHT22;2169;49.086;9.284;2023-07-08T00:07:05;24.90;30.10
4312;DHT22;2169;49.086;9.284;2023-07-08T00:09:37;24.80;30.20
4312;DHT22;2169;49.086;9.284;2023-07-08T00:12:07;24.70;30.40
4312;DHT22;2169;49.086;9.284;2023-07-08T00:14:35;24.70;30.60
4312;DHT22;2169;49.086;9.284;2023-07-08T00:17:02;24.60;30.90
4312;DHT22;2169;49.086;9.284;2023-07-08T00:19:29;24.50;31.20
4312;DHT22;2169;49.086;9.284;2023-07-08T00:21:58;24.50;31.30
4312;DHT22;2169;49.086;9.284;2023-07-08T00:24:26;24.40;31.40
4312;DHT22;2169;49.086;9.284;2023-07-08T00:26:53;24.30;31.60
4312;DHT22;2169;49.086;9.284;2023-07-08T00:29:20;24.30;31.80
4312;DHT22;2169;49.086;9.284;2023-07-08T00:31:46;24.20;32.00
4312;DHT22;2169;49.086;9.284;2023-07-08T00:34:13;24.10;32.00
4312;DHT22;2169;49.086;9.284;2023-07-08T00:36:41;24.00;32.10
4312;DHT22;2169;49.086;9.284;2023-07-08T00:39:13;24.00;32.20
4312;DHT22;2169;49.086;9.284;2023-07-08T00:41:42;24.00;32.30
4312;DHT22;2169;49.086;9.284;2023-07-08T00:44:11;23.90;32.30
4312;DHT22;2169;49.086;9.284;2023-07-08T00:46:46;23.80;32.50
4312;DHT22;2169;49.086;9.284;2023-07-08T00:49:31;23.70;32.60
4312;DHT22;2169;49.086;9.284;2023-07-08T00:52:25;23.70;32.90
4312;DHT22;2169;49.086;9.284;2023-07-08T00:54:55;23.60;33.80
4312;DHT22;2169;49.086;9.284;2023-07-08T00:57:27;23.50;33.30
4312;DHT22;2169;49.086;9.284;2023-07-08T00:59:57;23.50;33.40
4312;DHT22;2169;49.086;9.284;2023-07-08T01:02:29;23.40;33.40
4312;DHT22;2169;49.086;9.284;2023-07-08T01:05:01;23.30;33.40
4312;DHT22;2169;49.086;9.284;2023-07-08T01:07:30;23.30;33.70
4312;DHT22;2169;49.086;9.284;2023-07-08T01:10:02;23.20;33.80
4312;DHT22;2169;49.086;9.284;2023-07-08T01:12:32;23.10;33.80
4312;DHT22;2169;49.086;9.284;2023-07-08T01:15:02;23.10;34.00
4312;DHT22;2169;49.086;9.284;2023-07-08T01:17:29;23.10;34.10
4312;DHT22;2169;49.086;9.284;2023-07-08T01:19:58;23.00;34.20
4312;DHT22;2169;49.086;9.284;2023-07-08T01:22:26;22.90;34.20
4312;DHT22;2169;49.086;9.284;2023-07-08T01:24:58;22.90;34.40
4312;DHT22;2169;49.086;9.284;2023-07-08T01:27:30;22.90;34.70
4312;DHT22;2169;49.086;9.284;2023-07-08T01:29:58;22.80;34.90
4312;DHT22;2169;49.086;9.284;2023-07-08T01:32:25;22.80;35.00
4312;DHT22;2169;49.086;9.284;2023-07-08T01:34:54;22.70;35.20
4312;DHT22;2169;49.086;9.284;2023-07-08T01:37:44;22.60;35.30
4312;DHT22;2169;49.086;9.284;2023-07-08T01:40:31;22.60;35.50
4312;DHT22;2169;49.086;9.284;2023-07-08T01:43:00;22.60;35.70
4312;DHT22;2169;49.086;9.284;2023-07-08T01:45:29;22.50;35.70
4312;DHT22;2169;49.086;9.284;2023-07-08T01:48:02;22.40;35.90
4312;DHT22;2169;49.086;9.284;2023-07-08T01:50:31;22.40;36.10
4312;DHT22;2169;49.086;9.284;2023-07-08T01:53:04;22.40;36.20
4312;DHT22;2169;49.086;9.284;2023-07-08T01:55:33;22.30;36.20
4312;DHT22;2169;49.086;9.284;2023-07-08T01:58:00;22.30;36.30
4312;DHT22;2169;49.086;9.284;2023-07-08T02:00:27;22.20;36.20
4312;DHT22;2169;49.086;9.284;2023-07-08T02:02:54;22.20;36.30
4312;DHT22;2169;49.086;9.284;2023-07-08T02:05:20;22.10;36.40
4312;DHT22;2169;49.086;9.284;2023-07-08T02:07:48;22.10;36.50
4312;DHT22;2169;49.086;9.284;2023-07-08T02:10:18;22.00;36.50
4312;DHT22;2169;49.086;9.284;2023-07-08T02:12:44;22.00;36.60
4312;DHT22;2169;49.086;9.284;2023-07-08T02:15:11;21.90;36.60
4312;DHT22;2169;49.086;9.284;2023-07-08T02:17:38;21.90;36.80
4312;DHT22;2169;49.086;9.284;2023-07-08T02:20:06;21.80;36.90
4312;DHT22;2169;49.086;9.284;2023-07-08T02:22:34;21.80;37.10
4312;DHT22;2169;49.086;9.284;2023-07-08T02:25:02;21.70;37.20
4312;DHT22;2169;49.086;9.284;2023-07-08T02:27:30;21.60;37.20
4312;DHT22;2169;49.086;9.284;2023-07-08T02:29:58;21.60;37.40
4312;DHT22;2169;49.086;9.284;2023-07-08T02:32:26;21.50;37.30
4312;DHT22;2169;49.086;9.284;2023-07-08T02:34:53;21.50;37.40
4312;DHT22;2169;49.086;9.284;2023-07-08T02:37:20;21.40;37.30
4312;DHT22;2169;49.086;9.284;2023-07-08T02:39:47;21.40;37.50
4312;DHT22;2169;49.086;9.284;2023-07-08T02:42:14;21.30;37.50
4312;DHT22;2169;49.086;9.284;2023-07-08T02:44:42;21.30;37.60
4312;DHT22;2169;49.086;9.284;2023-07-08T02:47:09;21.20;37.60
4312;DHT22;2169;49.086;9.284;2023-07-08T02:49:37;21.20;37.60
4312;DHT22;2169;49.086;9.284;2023-07-08T02:52:04;21.10;37.50
4312;DHT22;2169;49.086;9.284;2023-07-08T02:54:33;21.00;37.60
4312;DHT22;2169;49.086;9.284;2023-07-08T02:57:03;21.00;37.70
4312;DHT22;2169;49.086;9.284;2023-07-08T02:59:31;20.90;37.80
4312;DHT22;2169;49.086;9.284;2023-07-08T03:02:03;20.90;37.90
4312;DHT22;2169;49.086;9.284;2023-07-08T03:04:31;20.90;38.20
4312;DHT22;2169;49.086;9.284;2023-07-08T03:06:58;20.80;38.30
4312;DHT22;2169;49.086;9.284;2023-07-08T03:09:25;20.70;38.40
4312;DHT22;2169;49.086;9.284;2023-07-08T03:11:54;20.70;38.50
4312;DHT22;2169;49.086;9.284;2023-07-08T03:14:21;20.70;38.70
4312;DHT22;2169;49.086;9.284;2023-07-08T03:16:48;20.60;38.70
4312;DHT22;2169;49.086;9.284;2023-07-08T03:19:16;20.80;40.00
4312;DHT22;2169;49.086;9.284;2023-07-08T03:21:43;20.60;40.20
4312;DHT22;2169;49.086;9.284;2023-07-08T03:24:10;20.60;39.50
4312;DHT22;2169;49.086;9.284;2023-07-08T03:26:37;20.50;39.40
4312;DHT22;2169;49.086;9.284;2023-07-08T03:29:06;20.40;39.50
4312;DHT22;2169;49.086;9.284;2023-07-08T03:31:39;20.40;39.70
4312;DHT22;2169;49.086;9.284;2023-07-08T03:34:07;20.30;39.80
4312;DHT22;2169;49.086;9.284;2023-07-08T03:36:37;20.30;39.90
4312;DHT22;2169;49.086;9.284;2023-07-08T03:39:10;20.20;39.90
4312;DHT22;2169;49.086;9.284;2023-07-08T03:41:37;20.10;39.90
4312;DHT22;2169;49.086;9.284;2023-07-08T03:44:04;20.10;40.10
4312;DHT22;2169;49.086;9.284;2023-07-08T03:46:32;20.00;40.20
4312;DHT22;2169;49.086;9.284;2023-07-08T03:49:00;20.00;40.30
4312;DHT22;2169;49.086;9.284;2023-07-08T03:51:30;20.00;40.70
4312;DHT22;2169;49.086;9.284;2023-07-08T03:54:01;19.90;40.40
4312;DHT22;2169;49.086;9.284;2023-07-08T03:56:27;19.90;40.50
4312;DHT22;2169;49.086;9.284;2023-07-08T03:58:55;19.90;40.50
4312;DHT22;2169;49.086;9.284;2023-07-08T04:01:23;19.80;40.50
4312;DHT22;2169;49.086;9.284;2023-07-08T04:03:55;19.80;40.70
4312;DHT22;2169;49.086;9.284;2023-07-08T04:06:22;19.70;40.80
4312;DHT22;2169;49.086;9.284;2023-07-08T04:08:50;19.70;40.90
4312;DHT22;2169;49.086;9.284;2023-07-08T04:11:20;19.70;41.00
4312;DHT22;2169;49.086;9.284;2023-07-08T04:13:48;19.70;41.20
4312;DHT22;2169;49.086;9.284;2023-07-08T04:16:18;19.70;41.40
4312;DHT22;2169;49.086;9.284;2023-07-08T04:18:45;19.60;41.40
4312;DHT22;2169;49.086;9.284;2023-07-08T04:21:12;19.60;41.50
4312;DHT22;2169;49.086;9.284;2023-07-08T04:23:39;19.50;41.60
4312;DHT22;2169;49.086;9.284;2023-07-08T04:26:08;19.50;41.80
4312;DHT22;2169;49.086;9.284;2023-07-08T04:28:37;19.50;42.00
4312;DHT22;2169;49.086;9.284;2023-07-08T04:31:04;19.50;42.30
4312;DHT22;2169;49.086;9.284;2023-07-08T04:33:31;19.50;42.40
4312;DHT22;2169;49.086;9.284;2023-07-08T04:35:58;19.40;42.50
4312;DHT22;2169;49.086;9.284;2023-07-08T04:38:26;19.40;42.70
4312;DHT22;2169;49.086;9.284;2023-07-08T04:40:53;19.40;42.80
4312;DHT22;2169;49.086;9.284;2023-07-08T04:43:22;19.40;42.90
4312;DHT22;2169;49.086;9.284;2023-07-08T04:45:57;19.40;43.00
4312;DHT22;2169;49.086;9.284;2023-07-08T04:48:23;19.40;43.20
4312;DHT22;2169;49.086;9.284;2023-07-08T04:50:51;19.40;43.30
4312;DHT22;2169;49.086;9.284;2023-07-08T04:53:18;19.40;43.60
4312;DHT22;2169;49.086;9.284;2023-07-08T04:55:48;19.40;43.70
4312;DHT22;2169;49.086;9.284;2023-07-08T04:58:16;19.40;43.80
4312;DHT22;2169;49.086;9.284;2023-07-08T05:00:43;19.40;43.80
4312;DHT22;2169;49.086;9.284;2023-07-08T05:03:11;19.50;44.10
4312;DHT22;2169;49.086;9.284;2023-07-08T05:05:38;19.50;44.20
4312;DHT22;2169;49.086;9.284;2023-07-08T05:08:06;19.50;44.30
4312;DHT22;2169;49.086;9.284;2023-07-08T05:10:33;19.50;44.30
4312;DHT22;2169;49.086;9.284;2023-07-08T05:13:00;19.60;44.50
4312;DHT22;2169;49.086;9.284;2023-07-08T05:15:27;19.60;44.60
4312;DHT22;2169;49.086;9.284;2023-07-08T05:17:54;19.60;44.50
4312;DHT22;2169;49.086;9.284;2023-07-08T05:20:23;19.70;44.70
4312;DHT22;2169;49.086;9.284;2023-07-08T05:22:50;19.70;44.60
4312;DHT22;2169;49.086;9.284;2023-07-08T05:25:18;19.80;44.60
4312;DHT22;2169;49.086;9.284;2023-07-08T05:27:46;19.80;44.50
4312;DHT22;2169;49.086;9.284;2023-07-08T05:30:15;19.90;44.50
4312;DHT22;2169;49.086;9.284;2023-07-08T05:32:43;20.00;44.50
4312;DHT22;2169;49.086;9.284;2023-07-08T05:35:10;20.10;44.50
4312;DHT22;2169;49.086;9.284;2023-07-08T05:37:38;20.20;44.60
4312;DHT22;2169;49.086;9.284;2023-07-08T05:40:06;20.20;44.60
4312;DHT22;2169;49.086;9.284;2023-07-08T05:42:34;20.30;44.60
4312;DHT22;2169;49.086;9.284;2023-07-08T05:45:00;20.40;44.60
4312;DHT22;2169;49.086;9.284;2023-07-08T05:47:27;20.60;44.70
4312;DHT22;2169;49.086;9.284;2023-07-08T05:49:54;20.70;44.70
4312;DHT22;2169;49.086;9.284;2023-07-08T05:52:21;20.90;44.90
4312;DHT22;2169;49.086;9.284;2023-07-08T05:54:49;21.00;45.00
4312;DHT22;2169;49.086;9.284;2023-07-08T05:57:16;21.20;45.20
4312;DHT22;2169;49.086;9.284;2023-07-08T05:59:43;21.40;45.40
4312;DHT22;2169;49.086;9.284;2023-07-08T06:02:11;21.70;45.50
4312;DHT22;2169;49.086;9.284;2023-07-08T06:04:38;21.90;45.60
4312;DHT22;2169;49.086;9.284;2023-07-08T06:07:05;22.10;45.50
4312;DHT22;2169;49.086;9.284;2023-07-08T06:09:32;22.40;45.40
4312;DHT22;2169;49.086;9.284;2023-07-08T06:12:00;22.60;45.10
4312;DHT22;2169;49.086;9.284;2023-07-08T06:14:28;22.90;44.90
4312;DHT22;2169;49.086;9.284;2023-07-08T06:16:54;23.10;44.60
4312;DHT22;2169;49.086;9.284;2023-07-08T06:19:22;23.30;44.10
4312;DHT22;2169;49.086;9.284;2023-07-08T06:21:49;23.40;43.60
4312;DHT22;2169;49.086;9.284;2023-07-08T06:24:16;23.50;43.10
4312;DHT22;2169;49.086;9.284;2023-07-08T06:26:42;23.60;42.70
4312;DHT22;2169;49.086;9.284;2023-07-08T06:29:10;23.70;42.50
4312;DHT22;2169;49.086;9.284;2023-07-08T06:31:37;23.90;42.40
4312;DHT22;2169;49.086;9.284;2023-07-08T06:34:05;23.90;42.20
4312;DHT22;2169;49.086;9.284;2023-07-08T06:36:32;24.00;42.00
4312;DHT22;2169;49.086;9.284;2023-07-08T06:38:59;24.10;41.50
4312;DHT22;2169;49.086;9.284;2023-07-08T06:41:26;24.30;41.40
4312;DHT22;2169;49.086;9.284;2023-07-08T06:43:53;24.30;41.20
4312;DHT22;2169;49.086;9.284;2023-07-08T06:46:22;24.40;40.70
4312;DHT22;2169;49.086;9.284;2023-07-08T06:48:49;24.60;40.60
4312;DHT22;2169;49.086;9.284;2023-07-08T06:51:16;24.70;40.30
4312;DHT22;2169;49.086;9.284;2023-07-08T06:53:43;24.80;40.10
4312;DHT22;2169;49.086;9.284;2023-07-08T06:56:10;24.90;39.90
4312;DHT22;2169;49.086;9.284;2023-07-08T06:58:37;25.00;39.50
4312;DHT22;2169;49.086;9.284;2023-07-08T07:01:04;25.20;39.30
4312;DHT22;2169;49.086;9.284;2023-07-08T07:03:32;25.30;39.00
4312;DHT22;2169;49.086;9.284;2023-07-08T07:06:00;25.50;38.80
4312;DHT22;2169;49.086;9.284;2023-07-08T07:08:27;25.60;38.60
4312;DHT22;2169;49.086;9.284;2023-07-08T07:10:54;25.80;38.30
4312;DHT22;2169;49.086;9.284;2023-07-08T07:13:20;26.00;38.10
4312;DHT22;2169;49.086;9.284;2023-07-08T07:15:48;26.20;37.70
4312;DHT22;2169;49.086;9.284;2023-07-08T07:18:15;26.40;37.30
4312;DHT22;2169;49.086;9.284;2023-07-08T07:20:49;26.60;37.00
4312;DHT22;2169;49.086;9.284;2023-07-08T07:23:17;26.90;36.70
4312;DHT22;2169;49.086;9.284;2023-07-08T07:25:46;27.10;36.50
4312;DHT22;2169;49.086;9.284;2023-07-08T07:28:14;27.40;36.10
4312;DHT22;2169;49.086;9.284;2023-07-08T07:30:42;27.60;35.80
4312;DHT22;2169;49.086;9.284;2023-07-08T07:33:09;27.80;35.50
4312;DHT22;2169;49.086;9.284;2023-07-08T07:35:40;28.10;35.30
4312;DHT22;2169;49.086;9.284;2023-07-08T07:38:09;28.20;34.90
4312;DHT22;2169;49.086;9.284;2023-07-08T07:40:36;28.50;34.60
4312;DHT22;2169;49.086;9.284;2023-07-08T07:43:04;28.60;34.00
4312;DHT22;2169;49.086;9.284;2023-07-08T07:45:31;28.80;33.60
4312;DHT22;2169;49.086;9.284;2023-07-08T07:47:58;29.00;33.30
4312;DHT22;2169;49.086;9.284;2023-07-08T07:50:25;29.20;33.00
4312;DHT22;2169;49.086;9.284;2023-07-08T07:52:52;29.40;32.70
4312;DHT22;2169;49.086;9.284;2023-07-08T07:55:20;29.60;32.50
4312;DHT22;2169;49.086;9.284;2023-07-08T07:57:47;29.70;32.20
4312;DHT22;2169;49.086;9.284;2023-07-08T08:00:15;29.80;32.20
4312;DHT22;2169;49.086;9.284;2023-07-08T08:02:43;30.00;32.00
4312;DHT22;2169;49.086;9.284;2023-07-08T08:05:10;30.10;31.80
4312;DHT22;2169;49.086;9.284;2023-07-08T08:07:37;30.20;31.60
4312;DHT22;2169;49.086;9.284;2023-07-08T08:10:05;30.30;31.30
4312;DHT22;2169;49.086;9.284;2023-07-08T08:12:34;30.40;31.10
4312;DHT22;2169;49.086;9.284;2023-07-08T08:15:01;30.60;31.10
4312;DHT22;2169;49.086;9.284;2023-07-08T08:17:28;30.70;31.00
4312;DHT22;2169;49.086;9.284;2023-07-08T08:19:55;30.80;30.70
4312;DHT22;2169;49.086;9.284;2023-07-08T08:22:22;30.90;30.50
4312;DHT22;2169;49.086;9.284;2023-07-08T08:24:49;30.90;30.30
4312;DHT22;2169;49.086;9.284;2023-07-08T08:27:16;31.00;30.30
4312;DHT22;2169;49.086;9.284;2023-07-08T08:29:45;31.10;30.20
4312;DHT22;2169;49.086;9.284;2023-07-08T08:32:12;31.20;30.00
4312;DHT22;2169;49.086;9.284;2023-07-08T08:34:40;31.20;30.00
4312;DHT22;2169;49.086;9.284;2023-07-08T08:37:08;31.30;29.90
4312;DHT22;2169;49.086;9.284;2023-07-08T08:39:35;31.30;29.70
4312;DHT22;2169;49.086;9.284;2023-07-08T08:42:02;31.30;29.50
4312;DHT22;2169;49.086;9.284;2023-07-08T08:44:35;31.30;29.50
4312;DHT22;2169;49.086;9.284;2023-07-08T08:47:14;31.30;29.60
4312;DHT22;2169;49.086;9.284;2023-07-08T08:49:52;31.30;29.70
4312;DHT22;2169;49.086;9.284;2023-07-08T08:52:24;31.30;29.60
4312;DHT22;2169;49.086;9.284;2023-07-08T08:54:51;31.40;29.60
4312;DHT22;2169;49.086;9.284;2023-07-08T08:57:37;31.50;29.60
4312;DHT22;2169;49.086;9.284;2023-07-08T09:00:07;31.70;29.60
4312;DHT22;2169;49.086;9.284;2023-07-08T09:02:41;31.70;29.50
4312;DHT22;2169;49.086;9.284;2023-07-08T09:05:11;31.90;29.40
4312;DHT22;2169;49.086;9.284;2023-07-08T09:07:45;31.90;29.30
4312;DHT22;2169;49.086;9.284;2023-07-08T09:10:21;32.10;29.30
4312;DHT22;2169;49.086;9.284;2023-07-08T09:12:57;32.20;29.20
4312;DHT22;2169;49.086;9.284;2023-07-08T09:15:26;32.30;29.20
4312;DHT22;2169;49.086;9.284;2023-07-08T09:17:59;32.40;28.90
4312;DHT22;2169;49.086;9.284;2023-07-08T09:20:28;32.60;28.80
4312;DHT22;2169;49.086;9.284;2023-07-08T09:23:01;32.70;28.80
4312;DHT22;2169;49.086;9.284;2023-07-08T09:25:32;32.80;28.60
4312;DHT22;2169;49.086;9.284;2023-07-08T09:28:00;32.90;28.50
4312;DHT22;2169;49.086;9.284;2023-07-08T09:30:27;33.10;28.30
4312;DHT22;2169;49.086;9.284;2023-07-08T09:32:57;33.20;28.10
4312;DHT22;2169;49.086;9.284;2023-07-08T09:35:38;33.30;27.90
4312;DHT22;2169;49.086;9.284;2023-07-08T09:38:07;33.40;27.70
4312;DHT22;2169;49.086;9.284;2023-07-08T09:40:34;33.50;27.60
4312;DHT22;2169;49.086;9.284;2023-07-08T09:43:03;33.50;27.20
4312;DHT22;2169;49.086;9.284;2023-07-08T09:45:40;33.60;27.30
4312;DHT22;2169;49.086;9.284;2023-07-08T09:48:16;33.70;27.30
4312;DHT22;2169;49.086;9.284;2023-07-08T09:50:47;33.80;27.30
4312;DHT22;2169;49.086;9.284;2023-07-08T09:53:14;33.90;27.20
4312;DHT22;2169;49.086;9.284;2023-07-08T09:55:41;34.10;27.20
4312;DHT22;2169;49.086;9.284;2023-07-08T09:58:13;34.20;27.20
4312;DHT22;2169;49.086;9.284;2023-07-08T10:00:41;34.30;27.00
4312;DHT22;2169;49.086;9.284;2023-07-08T10:03:13;34.40;27.00
4312;DHT22;2169;49.086;9.284;2023-07-08T10:05:47;34.50;26.80
4312;DHT22;2169;49.086;9.284;2023-07-08T10:08:17;34.60;26.70
4312;DHT22;2169;49.086;9.284;2023-07-08T10:10:47;34.70;26.30
4312;DHT22;2169;49.086;9.284;2023-07-08T10:13:20;34.80;26.10
4312;DHT22;2169;49.086;9.284;2023-07-08T10:15:52;34.80;25.90
4312;DHT22;2169;49.086;9.284;2023-07-08T10:18:25;34.80;25.70
4312;DHT22;2169;49.086;9.284;2023-07-08T10:24:23;35.00;25.60
4312;DHT22;2169;49.086;9.284;2023-07-08T10:27:00;35.00;25.60
4312;DHT22;2169;49.086;9.284;2023-07-08T10:29:34;35.10;25.40
4312;DHT22;2169;49.086;9.284;2023-07-08T10:32:13;35.00;25.30
4312;DHT22;2169;49.086;9.284;2023-07-08T10:34:49;35.00;25.30
4312;DHT22;2169;49.086;9.284;2023-07-08T10:37:25;35.10;25.30
4312;DHT22;2169;49.086;9.284;2023-07-08T10:40:02;35.10;25.20
4312;DHT22;2169;49.086;9.284;2023-07-08T10:42:49;35.10;25.20
4312;DHT22;2169;49.086;9.284;2023-07-08T10:45:26;35.20;25.20
4312;DHT22;2169;49.086;9.284;2023-07-08T10:48:09;35.20;25.20
4312;DHT22;2169;49.086;9.284;2023-07-08T10:50:58;35.30;25.30
4312;DHT22;2169;49.086;9.284;2023-07-08T10:53:42;35.40;25.10
4312;DHT22;2169;49.086;9.284;2023-07-08T10:56:18;35.40;25.00
4312;DHT22;2169;49.086;9.284;2023-07-08T10:59:13;35.30;24.90
4312;DHT22;2169;49.086;9.284;2023-07-08T11:02:09;35.40;24.90
4312;DHT22;2169;49.086;9.284;2023-07-08T11:04:54;35.40;24.90
4312;DHT22;2169;49.086;9.284;2023-07-08T11:07:30;35.30;24.60
4312;DHT22;2169;49.086;9.284;2023-07-08T11:10:02;35.30;24.60
4312;DHT22;2169;49.086;9.284;2023-07-08T11:12:36;35.40;24.60
4312;DHT22;2169;49.086;9.284;2023-07-08T11:15:16;35.30;24.40
4312;DHT22;2169;49.086;9.284;2023-07-08T11:17:49;35.30;24.40
4312;DHT22;2169;49.086;9.284;2023-07-08T11:20:20;35.30;24.40
4312;DHT22;2169;49.086;9.284;2023-07-08T11:22:54;35.40;24.40
4312;DHT22;2169;49.086;9.284;2023-07-08T11:25:25;35.40;24.40
4312;DHT22;2169;49.086;9.284;2023-07-08T11:27:58;35.50;24.40
4312;DHT22;2169;49.086;9.284;2023-07-08T11:30:29;35.50;24.30
4312;DHT22;2169;49.086;9.284;2023-07-08T11:33:02;35.50;24.30
4312;DHT22;2169;49.086;9.284;2023-07-08T11:35:36;35.40;24.30
4312;DHT22;2169;49.086;9.284;2023-07-08T11:38:06;35.60;24.30
4312;DHT22;2169;49.086;9.284;2023-07-08T11:40:50;35.60;24.30
4312;DHT22;2169;49.086;9.284;2023-07-08T11:43:20;35.70;24.30
4312;DHT22;2169;49.086;9.284;2023-07-08T11:45:49;35.70;24.30
4312;DHT22;2169;49.086;9.284;2023-07-08T11:48:18;35.80;24.30
4312;DHT22;2169;49.086;9.284;2023-07-08T11:50:49;35.90;24.30
4312;DHT22;2169;49.086;9.284;2023-07-08T11:53:32;35.90;24.20
4312;DHT22;2169;49.086;9.284;2023-07-08T11:56:03;36.10;24.20
4312;DHT22;2169;49.086;9.284;2023-07-08T11:58:50;36.10;24.10
4312;DHT22;2169;49.086;9.284;2023-07-08T12:01:23;36.20;24.00
4312;DHT22;2169;49.086;9.284;2023-07-08T12:03:58;36.30;23.90
4312;DHT22;2169;49.086;9.284;2023-07-08T12:06:46;36.30;23.70
4312;DHT22;2169;49.086;9.284;2023-07-08T12:09:15;36.30;23.70
4312;DHT22;2169;49.086;9.284;2023-07-08T12:11:55;36.30;23.50
4312;DHT22;2169;49.086;9.284;2023-07-08T12:14:26;36.20;23.60
4312;DHT22;2169;49.086;9.284;2023-07-08T12:16:54;36.10;23.50
4312;DHT22;2169;49.086;9.284;2023-07-08T12:19:22;36.10;23.50
4312;DHT22;2169;49.086;9.284;2023-07-08T12:21:51;36.10;23.50
4312;DHT22;2169;49.086;9.284;2023-07-08T12:24:22;36.10;23.40
4312;DHT22;2169;49.086;9.284;2023-07-08T12:26:52;36.20;23.40
4312;DHT22;2169;49.086;9.284;2023-07-08T12:29:19;36.20;23.40
4312;DHT22;2169;49.086;9.284;2023-07-08T12:31:48;36.30;23.40
4312;DHT22;2169;49.086;9.284;2023-07-08T12:34:16;36.40;23.40
4312;DHT22;2169;49.086;9.284;2023-07-08T12:36:43;36.40;23.20
4312;DHT22;2169;49.086;9.284;2023-07-08T12:39:13;36.40;23.10
4312;DHT22;2169;49.086;9.284;2023-07-08T12:41:42;36.40;23.20
4312;DHT22;2169;49.086;9.284;2023-07-08T12:44:16;36.40;23.30
4312;DHT22;2169;49.086;9.284;2023-07-08T12:46:48;36.50;23.40
4312;DHT22;2169;49.086;9.284;2023-07-08T12:49:16;36.50;23.50
4312;DHT22;2169;49.086;9.284;2023-07-08T12:51:44;36.60;23.70
4312;DHT22;2169;49.086;9.284;2023-07-08T12:54:12;36.70;23.60
4312;DHT22;2169;49.086;9.284;2023-07-08T12:56:40;36.70;23.60
4312;DHT22;2169;49.086;9.284;2023-07-08T12:59:17;36.70;23.60
4312;DHT22;2169;49.086;9.284;2023-07-08T13:01:46;36.70;23.60
4312;DHT22;2169;49.086;9.284;2023-07-08T13:04:15;36.60;23.60
4312;DHT22;2169;49.086;9.284;2023-07-08T13:06:44;36.60;23.60
4312;DHT22;2169;49.086;9.284;2023-07-08T13:09:24;36.60;23.50
4312;DHT22;2169;49.086;9.284;2023-07-08T13:11:54;36.60;23.40
4312;DHT22;2169;49.086;9.284;2023-07-08T13:14:22;36.60;23.40
4312;DHT22;2169;49.086;9.284;2023-07-08T13:16:51;36.60;23.50
4312;DHT22;2169;49.086;9.284;2023-07-08T13:19:19;36.60;23.40
4312;DHT22;2169;49.086;9.284;2023-07-08T13:21:47;36.70;23.40
4312;DHT22;2169;49.086;9.284;2023-07-08T13:24:14;36.70;23.30
4312;DHT22;2169;49.086;9.284;2023-07-08T13:26:46;36.80;23.40
4312;DHT22;2169;49.086;9.284;2023-07-08T13:29:14;36.90;23.40
4312;DHT22;2169;49.086;9.284;2023-07-08T13:31:44;37.00;23.40
4312;DHT22;2169;49.086;9.284;2023-07-08T13:34:16;37.10;23.10
4312;DHT22;2169;49.086;9.284;2023-07-08T13:36:46;37.10;22.60
4312;DHT22;2169;49.086;9.284;2023-07-08T13:39:17;37.10;22.40
4312;DHT22;2169;49.086;9.284;2023-07-08T13:41:46;37.10;22.10
4312;DHT22;2169;49.086;9.284;2023-07-08T13:44:13;37.10;22.00
4312;DHT22;2169;49.086;9.284;2023-07-08T13:46:45;37.10;21.90
4312;DHT22;2169;49.086;9.284;2023-07-08T13:49:13;37.10;21.90
4312;DHT22;2169;49.086;9.284;2023-07-08T13:51:41;37.20;21.90
4312;DHT22;2169;49.086;9.284;2023-07-08T13:54:14;37.20;21.80
4312;DHT22;2169;49.086;9.284;2023-07-08T13:56:43;37.20;21.60
4312;DHT22;2169;49.086;9.284;2023-07-08T13:59:15;37.20;21.60
4312;DHT22;2169;49.086;9.284;2023-07-08T14:01:43;37.30;21.70
4312;DHT22;2169;49.086;9.284;2023-07-08T14:04:11;37.40;21.50
4312;DHT22;2169;49.086;9.284;2023-07-08T14:06:39;37.50;21.50
4312;DHT22;2169;49.086;9.284;2023-07-08T14:09:13;37.50;21.30
4312;DHT22;2169;49.086;9.284;2023-07-08T14:11:40;37.50;21.10
4312;DHT22;2169;49.086;9.284;2023-07-08T14:14:08;37.50;21.00
4312;DHT22;2169;49.086;9.284;2023-07-08T14:16:38;37.50;21.00
4312;DHT22;2169;49.086;9.284;2023-07-08T14:19:10;37.40;20.80
4312;DHT22;2169;49.086;9.284;2023-07-08T14:21:39;37.40;20.60
4312;DHT22;2169;49.086;9.284;2023-07-08T14:24:11;37.40;20.80
4312;DHT22;2169;49.086;9.284;2023-07-08T14:26:41;37.40;20.80
4312;DHT22;2169;49.086;9.284;2023-07-08T14:29:09;37.40;20.90
4312;DHT22;2169;49.086;9.284;2023-07-08T14:31:36;37.50;20.90
4312;DHT22;2169;49.086;9.284;2023-07-08T14:34:06;37.60;21.30
4312;DHT22;2169;49.086;9.284;2023-07-08T14:36:34;37.60;20.60
4312;DHT22;2169;49.086;9.284;2023-07-08T14:39:07;37.60;20.60
4312;DHT22;2169;49.086;9.284;2023-07-08T14:41:36;37.60;20.60
4312;DHT22;2169;49.086;9.284;2023-07-08T14:44:14;37.70;20.70
4312;DHT22;2169;49.086;9.284;2023-07-08T14:46:45;37.70;20.80
4312;DHT22;2169;49.086;9.284;2023-07-08T14:49:15;37.70;21.40
4312;DHT22;2169;49.086;9.284;2023-07-08T14:51:42;37.80;20.90
4312;DHT22;2169;49.086;9.284;2023-07-08T14:54:09;37.80;20.90
4312;DHT22;2169;49.086;9.284;2023-07-08T14:56:36;37.80;20.80
4312;DHT22;2169;49.086;9.284;2023-07-08T14:59:07;37.90;20.80
4312;DHT22;2169;49.086;9.284;2023-07-08T15:01:38;37.90;20.70
4312;DHT22;2169;49.086;9.284;2023-07-08T15:04:09;37.80;20.50
4312;DHT22;2169;49.086;9.284;2023-07-08T15:06:37;37.80;20.70
4312;DHT22;2169;49.086;9.284;2023-07-08T15:09:03;37.80;20.70
4312;DHT22;2169;49.086;9.284;2023-07-08T15:11:32;37.80;20.80
4312;DHT22;2169;49.086;9.284;2023-07-08T15:13:59;37.90;21.30
4312;DHT22;2169;49.086;9.284;2023-07-08T15:16:28;37.90;20.80
4312;DHT22;2169;49.086;9.284;2023-07-08T15:18:55;37.90;20.80
4312;DHT22;2169;49.086;9.284;2023-07-08T15:21:23;37.90;20.80
4312;DHT22;2169;49.086;9.284;2023-07-08T15:23:50;37.90;20.80
4312;DHT22;2169;49.086;9.284;2023-07-08T15:26:16;37.90;20.80
4312;DHT22;2169;49.086;9.284;2023-07-08T15:28:45;38.00;20.80
4312;DHT22;2169;49.086;9.284;2023-07-08T15:31:14;38.10;20.80
4312;DHT22;2169;49.086;9.284;2023-07-08T15:33:43;38.10;20.80
4312;DHT22;2169;49.086;9.284;2023-07-08T15:36:11;38.20;20.70
4312;DHT22;2169;49.086;9.284;2023-07-08T15:38:39;38.10;20.70
4312;DHT22;2169;49.086;9.284;2023-07-08T15:41:08;38.10;20.70
4312;DHT22;2169;49.086;9.284;2023-07-08T15:43:36;38.10;20.80
4312;DHT22;2169;49.086;9.284;2023-07-08T15:46:03;38.10;20.80
4312;DHT22;2169;49.086;9.284;2023-07-08T15:48:30;38.10;20.70
4312;DHT22;2169;49.086;9.284;2023-07-08T15:50:58;38.10;20.80
4312;DHT22;2169;49.086;9.284;2023-07-08T15:53:25;38.10;20.70
4312;DHT22;2169;49.086;9.284;2023-07-08T15:55:52;38.10;20.60
4312;DHT22;2169;49.086;9.284;2023-07-08T15:58:24;38.10;20.70
4312;DHT22;2169;49.086;9.284;2023-07-08T16:00:51;38.20;20.70
4312;DHT22;2169;49.086;9.284;2023-07-08T16:03:22;38.20;20.80
4312;DHT22;2169;49.086;9.284;2023-07-08T16:05:49;38.20;20.70
4312;DHT22;2169;49.086;9.284;2023-07-08T16:08:18;38.10;20.70
4312;DHT22;2169;49.086;9.284;2023-07-08T16:10:48;38.10;20.60
4312;DHT22;2169;49.086;9.284;2023-07-08T16:13:20;38.00;20.60
4312;DHT22;2169;49.086;9.284;2023-07-08T16:15:48;38.00;20.60
4312;DHT22;2169;49.086;9.284;2023-07-08T16:18:15;38.00;20.60
4312;DHT22;2169;49.086;9.284;2023-07-08T16:20:42;38.00;20.60
4312;DHT22;2169;49.086;9.284;2023-07-08T16:23:09;38.00;20.60